createdAt,value
2018-04-01T00:02:03.609Z,21.90
2018-04-01T00:04:30.169Z,12.97
2018-04-01T00:06:56.717Z,20.13
2018-04-01T00:09:23.248Z,13.20
2018-04-01T00:11:49.820Z,18.23
2018-04-01T00:14:16.438Z,33.47
2018-04-01T00:16:42.987Z,13.10
2018-04-01T00:19:09.584Z,19.57
2018-04-01T00:21:36.149Z,14.27
2018-04-01T00:24:02.727Z,10.73
2018-04-01T00:26:29.296Z,13.03
2018-04-01T00:28:55.871Z,24.30
2018-04-01T00:31:22.432Z,15.00
2018-04-01T00:33:49.057Z,7.90
2018-04-01T00:36:15.589Z,13.60
2018-04-01T00:38:42.216Z,20.80
2018-04-01T00:41:08.760Z,19.47
2018-04-01T00:43:35.327Z,16.60
2018-04-01T00:46:01.920Z,17.20
2018-04-01T00:48:28.499Z,18.00
2018-04-01T00:50:55.014Z,15.77
2018-04-01T00:53:21.533Z,10.73
2018-04-01T00:55:48.167Z,8.47
2018-04-01T00:58:14.760Z,19.97
2018-04-01T01:00:41.304Z,14.40
2018-04-01T01:03:07.899Z,13.53
2018-04-01T01:05:34.496Z,10.07
2018-04-01T01:08:01.096Z,15.17
2018-04-01T01:10:27.637Z,22.50
2018-04-01T01:12:54.205Z,16.13
2018-04-01T01:15:20.731Z,10.67
2018-04-01T01:17:47.280Z,17.60
2018-04-01T01:20:13.866Z,26.03
2018-04-01T01:22:40.467Z,16.80
2018-04-01T01:25:07.052Z,15.63
2018-04-01T01:27:33.597Z,15.00
2018-04-01T01:30:00.184Z,30.00
2018-04-01T01:32:26.737Z,11.17
2018-04-01T01:34:53.289Z,29.80
2018-04-01T01:37:19.804Z,19.23
2018-04-01T01:39:46.435Z,23.20
2018-04-01T01:42:13.021Z,24.13
2018-04-01T01:44:39.572Z,10.03
2018-04-01T01:47:06.184Z,13.30
2018-04-01T01:49:32.737Z,14.27
2018-04-01T01:51:59.332Z,15.47
2018-04-01T01:54:25.887Z,14.53
2018-04-01T01:56:52.501Z,22.83
2018-04-01T01:59:19.064Z,12.20
2018-04-01T02:01:45.617Z,21.80
2018-04-01T02:04:12.255Z,17.93
2018-04-01T02:06:38.799Z,14.03
2018-04-01T02:09:05.314Z,13.27
2018-04-01T02:11:31.864Z,15.87
2018-04-01T02:13:58.364Z,26.80
2018-04-01T02:16:24.946Z,18.30
2018-04-01T02:18:51.558Z,12.50
2018-04-01T02:21:18.132Z,19.53
2018-04-01T02:23:44.701Z,13.50
2018-04-01T02:26:12.085Z,19.40
2018-04-01T02:28:38.741Z,17.57
2018-04-01T02:31:05.268Z,6.87
2018-04-01T02:33:31.852Z,15.90
2018-04-01T02:35:58.402Z,15.20
2018-04-01T02:38:25.004Z,14.97
2018-04-01T02:40:51.654Z,14.00
2018-04-01T02:43:18.347Z,23.67
2018-04-01T02:45:44.908Z,16.60
2018-04-01T02:48:11.433Z,12.93
2018-04-01T02:50:38.029Z,12.87
2018-04-01T02:53:04.628Z,21.57
2018-04-01T02:55:31.220Z,16.07
2018-04-01T02:57:57.736Z,24.40
2018-04-01T03:00:24.288Z,14.13
2018-04-01T03:02:50.824Z,11.43
2018-04-01T03:05:17.426Z,16.50
2018-04-01T03:07:43.991Z,17.33
2018-04-01T03:10:10.618Z,16.17
2018-04-01T03:12:37.226Z,13.70
2018-04-01T03:15:03.752Z,11.53
2018-04-01T03:17:30.270Z,10.00
2018-04-01T03:19:56.867Z,18.40
2018-04-01T03:22:23.480Z,13.80
2018-04-01T03:24:50.030Z,11.00
2018-04-01T03:27:16.645Z,22.77
2018-04-01T03:29:43.185Z,11.13
2018-04-01T03:32:09.817Z,21.43
2018-04-01T03:34:36.400Z,10.67
2018-04-01T03:37:03.012Z,14.43
2018-04-01T03:39:29.547Z,13.97
2018-04-01T03:41:56.156Z,9.63
2018-04-01T03:44:22.671Z,16.73
2018-04-01T03:46:49.229Z,16.97
2018-04-01T03:49:15.760Z,11.30
2018-04-01T03:51:42.284Z,11.87
2018-04-01T03:54:08.844Z,12.93
2018-04-01T03:56:35.481Z,10.37
2018-04-01T03:59:02.102Z,9.37
2018-04-01T04:01:28.710Z,9.67
2018-04-01T04:03:55.261Z,8.73
2018-04-01T04:06:21.857Z,6.43
2018-04-01T04:08:48.447Z,8.90
2018-04-01T04:11:14.976Z,13.23
2018-04-01T04:13:41.508Z,7.23
2018-04-01T04:16:08.081Z,13.60
2018-04-01T04:18:34.638Z,9.03
2018-04-01T04:21:01.284Z,7.83
2018-04-01T04:23:27.842Z,7.83
2018-04-01T04:25:55.307Z,11.53
2018-04-01T04:28:21.901Z,10.90
2018-04-01T04:30:48.461Z,8.40
2018-04-01T04:33:15.034Z,15.10
2018-04-01T04:35:41.554Z,13.07
2018-04-01T04:38:08.109Z,14.60
2018-04-01T04:40:34.706Z,6.63
2018-04-01T04:43:01.268Z,13.40
2018-04-01T04:45:27.775Z,9.60
2018-04-01T04:47:54.380Z,8.13
2018-04-01T04:50:20.897Z,11.03
2018-04-01T04:52:47.452Z,12.97
2018-04-01T04:55:13.993Z,5.47
2018-04-01T04:57:40.528Z,12.33
2018-04-01T05:00:07.128Z,10.23
2018-04-01T05:02:33.690Z,11.23
2018-04-01T05:05:00.301Z,5.83
2018-04-01T05:07:26.929Z,7.27
2018-04-01T05:09:53.518Z,6.20
2018-04-01T05:12:20.145Z,5.80
2018-04-01T05:14:46.708Z,3.13
2018-04-01T05:17:13.264Z,5.47
2018-04-01T05:19:39.811Z,9.57
2018-04-01T05:22:06.413Z,5.43
2018-04-01T05:24:32.991Z,7.27
2018-04-01T05:26:59.553Z,4.50
2018-04-01T05:29:26.716Z,2.93
2018-04-01T05:31:53.382Z,6.10
2018-04-01T05:34:19.960Z,6.47
2018-04-01T05:36:46.544Z,6.23
2018-04-01T05:39:13.121Z,4.03
2018-04-01T05:41:39.709Z,6.67
2018-04-01T05:44:06.288Z,6.77
2018-04-01T05:46:32.848Z,4.47
2018-04-01T05:48:59.531Z,5.77
2018-04-01T05:51:26.078Z,6.00
2018-04-01T05:53:52.612Z,6.63
2018-04-01T05:56:19.155Z,6.97
2018-04-01T05:58:45.758Z,7.50
2018-04-01T06:01:12.346Z,4.80
2018-04-01T06:03:38.919Z,6.50
2018-04-01T06:06:05.477Z,9.83
2018-04-01T06:08:32.122Z,9.17
2018-04-01T06:10:58.764Z,9.27
2018-04-01T06:13:25.364Z,9.70
2018-04-01T06:15:51.926Z,6.37
2018-04-01T06:18:18.496Z,10.70
2018-04-01T06:20:45.078Z,11.10
2018-04-01T06:23:11.630Z,15.77
2018-04-01T06:25:38.215Z,9.70
2018-04-01T06:28:04.837Z,12.00
2018-04-01T06:30:31.425Z,11.47
2018-04-01T06:32:58.040Z,6.67
2018-04-01T06:35:24.666Z,6.17
2018-04-01T06:37:51.181Z,9.00
2018-04-01T06:40:17.736Z,9.73
2018-04-01T06:42:44.343Z,15.03
2018-04-01T06:45:10.971Z,14.07
2018-04-01T06:47:37.533Z,13.00
2018-04-01T06:50:04.146Z,12.03
2018-04-01T06:52:30.686Z,8.70
2018-04-01T06:54:57.267Z,7.97
2018-04-01T06:57:23.831Z,10.43
2018-04-01T06:59:50.427Z,9.20
2018-04-01T07:02:16.981Z,11.83
2018-04-01T07:04:43.528Z,9.73
2018-04-01T07:07:10.781Z,11.23
2018-04-01T07:09:37.415Z,15.23
2018-04-01T07:12:03.956Z,10.53
2018-04-01T07:14:30.500Z,16.13
2018-04-01T07:16:57.147Z,18.80
2018-04-01T07:19:23.761Z,8.40
2018-04-01T07:21:50.443Z,19.53
2018-04-01T07:24:17.071Z,28.73
2018-04-01T07:26:43.714Z,15.60
2018-04-01T07:29:10.297Z,12.13
2018-04-01T07:31:36.891Z,11.83
2018-04-01T07:34:03.457Z,16.47
2018-04-01T07:36:30.088Z,18.87
2018-04-01T07:38:56.654Z,24.63
2018-04-01T07:41:23.321Z,18.80
2018-04-01T07:43:49.954Z,12.97
2018-04-01T07:46:16.672Z,14.00
2018-04-01T07:48:43.214Z,11.97
2018-04-01T07:51:09.728Z,21.17
2018-04-01T07:53:36.377Z,13.10
2018-04-01T07:56:02.897Z,14.87
2018-04-01T07:58:29.495Z,11.90
2018-04-01T08:00:56.113Z,12.50
2018-04-01T08:03:22.642Z,11.37
2018-04-01T08:05:49.198Z,16.97
2018-04-01T08:08:15.798Z,15.73
2018-04-01T08:10:42.456Z,9.57
2018-04-01T08:13:09.403Z,11.87
2018-04-01T08:15:35.972Z,11.57
2018-04-01T08:18:02.530Z,9.13
2018-04-01T08:20:29.096Z,18.33
2018-04-01T08:22:55.737Z,10.33
2018-04-01T08:25:22.278Z,7.67
2018-04-01T08:27:48.980Z,8.47
2018-04-01T08:30:15.502Z,15.23
2018-04-01T08:32:42.118Z,8.43
2018-04-01T08:35:08.732Z,9.53
2018-04-01T08:37:35.385Z,9.40
2018-04-01T08:40:01.930Z,10.13
2018-04-01T08:42:28.495Z,12.50
2018-04-01T08:44:55.058Z,15.67
2018-04-01T08:47:21.610Z,10.73
2018-04-01T08:49:48.148Z,16.20
2018-04-01T08:52:14.708Z,11.20
2018-04-01T08:54:41.277Z,20.00
2018-04-01T08:57:07.914Z,15.07
2018-04-01T08:59:34.521Z,13.70
2018-04-01T09:02:01.009Z,15.03
2018-04-01T09:04:27.540Z,11.43
2018-04-01T09:06:54.136Z,15.93
2018-04-01T09:09:20.684Z,15.77
2018-04-01T09:11:47.239Z,13.77
2018-04-01T09:14:13.830Z,14.20
2018-04-01T09:16:40.455Z,22.90
2018-04-01T09:19:06.987Z,12.23
2018-04-01T09:21:33.595Z,14.60
2018-04-01T09:24:00.122Z,11.97
2018-04-01T09:26:26.662Z,15.93
2018-04-01T09:28:53.221Z,8.23
2018-04-01T09:31:19.754Z,8.70
2018-04-01T09:33:46.324Z,8.97
2018-04-01T09:36:12.937Z,13.23
2018-04-01T09:38:39.585Z,14.73
2018-04-01T09:41:06.168Z,20.57
2018-04-01T09:43:32.704Z,10.27
2018-04-01T09:45:59.266Z,13.87
2018-04-01T09:48:25.796Z,10.23
2018-04-01T09:50:52.366Z,11.47
2018-04-01T09:53:18.917Z,9.33
2018-04-01T09:55:45.501Z,14.93
2018-04-01T09:58:12.076Z,10.03
2018-04-01T10:00:39.687Z,10.53
2018-04-01T10:03:06.493Z,14.77
2018-04-01T10:05:33.971Z,15.70
2018-04-01T10:08:00.770Z,15.07
2018-04-01T10:10:27.574Z,11.33
2018-04-01T10:12:54.386Z,8.20
2018-04-01T10:15:21.182Z,17.20
2018-04-01T10:17:47.973Z,12.30
2018-04-01T10:20:14.800Z,13.77
2018-04-01T10:22:41.585Z,8.70
2018-04-01T10:25:08.398Z,9.30
2018-04-01T10:27:35.181Z,10.13
2018-04-01T10:30:01.956Z,11.63
2018-04-01T10:32:29.086Z,6.03
2018-04-01T10:34:55.918Z,8.87
2018-04-01T10:37:22.688Z,10.63
2018-04-01T10:39:49.616Z,7.87
2018-04-01T10:42:16.460Z,14.93
2018-04-01T10:44:43.220Z,8.63
2018-04-01T10:47:10.001Z,6.20
2018-04-01T10:49:36.833Z,7.63
2018-04-01T10:52:03.652Z,5.00
2018-04-01T10:54:30.184Z,11.30
2018-04-01T10:56:56.758Z,9.07
2018-04-01T10:59:23.335Z,8.20
2018-04-01T11:01:49.867Z,9.33
2018-04-01T11:04:16.479Z,17.50
2018-04-01T11:06:43.076Z,9.93
2018-04-01T11:09:09.627Z,8.10
2018-04-01T11:11:36.175Z,6.00
2018-04-01T11:14:02.788Z,9.20
2018-04-01T11:16:29.400Z,12.53
2018-04-01T11:18:56.016Z,6.77
2018-04-01T11:21:22.586Z,8.83
2018-04-01T11:23:49.277Z,13.03
2018-04-01T11:26:15.843Z,7.10
2018-04-01T11:28:42.369Z,8.47
2018-04-01T11:31:08.939Z,11.37
2018-04-01T11:33:35.464Z,11.87
2018-04-01T11:36:02.018Z,7.63
2018-04-01T11:38:28.598Z,10.20
2018-04-01T11:40:55.133Z,14.67
2018-04-01T11:43:21.681Z,10.10
2018-04-01T11:45:48.224Z,8.23
2018-04-01T11:48:15.037Z,12.27
2018-04-01T11:50:41.572Z,7.60
2018-04-01T11:53:08.141Z,13.67
2018-04-01T11:55:34.664Z,8.77
2018-04-01T11:58:01.203Z,4.43
2018-04-01T12:00:27.768Z,4.73
2018-04-01T12:02:54.318Z,7.20
2018-04-01T12:05:20.856Z,6.70
2018-04-01T12:07:47.357Z,5.43
2018-04-01T12:10:13.892Z,6.90
2018-04-01T12:12:40.535Z,6.27
2018-04-01T12:15:07.088Z,7.47
2018-04-01T12:17:33.580Z,4.90
2018-04-01T12:20:00.124Z,6.23
2018-04-01T12:22:26.687Z,7.30
2018-04-01T12:24:53.230Z,4.63
2018-04-01T12:27:19.813Z,6.23
2018-04-01T12:29:46.354Z,2.90
2018-04-01T12:32:12.892Z,5.97
2018-04-01T12:34:39.393Z,4.60
2018-04-01T12:37:05.928Z,3.47
2018-04-01T12:39:32.501Z,3.20
2018-04-01T12:41:59.026Z,3.63
2018-04-01T12:44:25.558Z,2.47
2018-04-01T12:46:52.146Z,2.80
2018-04-01T12:49:18.774Z,4.73
2018-04-01T12:51:45.344Z,4.80
2018-04-01T12:54:11.884Z,4.27
2018-04-01T12:56:38.440Z,3.50
2018-04-01T12:59:05.011Z,4.50
2018-04-01T13:01:31.565Z,3.03
2018-04-01T13:03:58.113Z,2.50
2018-04-01T13:06:24.667Z,2.73
2018-04-01T13:08:51.202Z,2.27
2018-04-01T13:11:17.768Z,3.17
2018-04-01T13:13:44.296Z,4.17
2018-04-01T13:16:10.842Z,1.73
2018-04-01T13:18:37.429Z,3.37
2018-04-01T13:21:04.006Z,3.07
2018-04-01T13:23:30.520Z,3.40
2018-04-01T13:25:57.110Z,3.20
2018-04-01T13:28:23.654Z,2.80
2018-04-01T13:30:50.268Z,3.07
2018-04-01T13:33:16.810Z,5.77
2018-04-01T13:35:43.349Z,5.43
2018-04-01T13:38:09.896Z,3.73
2018-04-01T13:40:36.440Z,2.80
2018-04-01T13:43:02.996Z,4.10
2018-04-01T13:45:29.560Z,2.40
2018-04-01T13:47:56.082Z,3.07
2018-04-01T13:50:22.692Z,3.13
2018-04-01T13:52:49.168Z,2.63
2018-04-01T13:55:15.804Z,3.37
2018-04-01T13:57:42.468Z,4.80
2018-04-01T14:00:09.083Z,4.60
2018-04-01T14:02:35.620Z,3.20
2018-04-01T14:05:02.204Z,5.07
2018-04-01T14:07:28.737Z,4.50
2018-04-01T14:09:55.296Z,3.87
2018-04-01T14:12:21.838Z,4.27
2018-04-01T14:14:48.373Z,3.07
2018-04-01T14:17:14.930Z,4.80
2018-04-01T14:19:41.473Z,5.47
2018-04-01T14:22:07.985Z,3.40
2018-04-01T14:24:34.604Z,1.70
2018-04-01T14:27:01.161Z,3.70
2018-04-01T14:29:27.693Z,3.53
2018-04-01T14:31:54.226Z,4.37
2018-04-01T14:34:20.775Z,2.53
2018-04-01T14:36:47.337Z,1.83
2018-04-01T14:39:13.892Z,3.00
2018-04-01T14:41:40.464Z,5.77
2018-04-01T14:44:06.988Z,1.63
2018-04-01T14:46:33.557Z,1.60
2018-04-01T14:49:00.139Z,4.57
2018-04-01T14:51:26.760Z,3.97
2018-04-01T14:53:53.351Z,2.87
2018-04-01T14:56:19.891Z,4.17
2018-04-01T14:58:46.514Z,1.97
2018-04-01T15:01:13.092Z,2.37
2018-04-01T15:03:39.798Z,3.63
2018-04-01T15:06:06.384Z,1.87
2018-04-01T15:08:32.955Z,2.23
2018-04-01T15:10:59.468Z,4.23
2018-04-01T15:13:26.000Z,2.83
2018-04-01T15:15:52.578Z,3.67
2018-04-01T15:18:19.120Z,2.23
2018-04-01T15:20:45.648Z,3.60
2018-04-01T15:23:12.178Z,3.37
2018-04-01T15:25:38.833Z,10.53
2018-04-01T15:28:06.077Z,4.67
2018-04-01T15:30:32.606Z,3.03
2018-04-01T15:32:59.148Z,3.33
2018-04-01T15:35:25.689Z,2.77
2018-04-01T15:37:52.240Z,2.80
2018-04-01T15:40:18.786Z,2.80
2018-04-01T15:42:45.350Z,5.40
2018-04-01T15:45:11.914Z,5.90
2018-04-01T15:47:38.460Z,3.33
2018-04-01T15:50:04.993Z,2.83
2018-04-01T15:52:31.596Z,3.17
2018-04-01T15:54:58.137Z,5.07
2018-04-01T15:57:24.770Z,3.77
2018-04-01T15:59:51.319Z,5.07
2018-04-01T16:02:17.871Z,4.67
2018-04-01T16:04:44.460Z,5.17
2018-04-01T16:07:10.983Z,5.07
2018-04-01T16:09:37.489Z,2.43
2018-04-01T16:12:04.072Z,2.73
2018-04-01T16:14:30.632Z,3.20
2018-04-01T16:16:57.153Z,2.43
2018-04-01T16:19:23.702Z,2.93
2018-04-01T16:21:51.216Z,2.70
2018-04-01T16:24:17.798Z,3.07
2018-04-01T16:26:44.348Z,1.73
2018-04-01T16:29:10.898Z,5.27
2018-04-01T16:31:37.412Z,1.90
2018-04-01T16:34:03.959Z,2.67
2018-04-01T16:36:30.500Z,2.50
2018-04-01T16:38:57.070Z,2.70
2018-04-01T16:41:23.615Z,5.17
2018-04-01T16:43:50.168Z,4.90
2018-04-01T16:46:16.746Z,2.53
2018-04-01T16:48:43.265Z,1.47
2018-04-01T16:51:09.839Z,2.27
2018-04-01T16:53:36.389Z,2.10
2018-04-01T16:56:02.923Z,1.97
2018-04-01T16:58:29.464Z,2.07
2018-04-01T17:00:56.040Z,2.23
2018-04-01T17:03:22.573Z,2.73
2018-04-01T17:05:49.105Z,2.20
2018-04-01T17:08:15.637Z,2.47
2018-04-01T17:10:42.198Z,2.43
2018-04-01T17:13:08.730Z,3.67
2018-04-01T17:15:35.258Z,3.13
2018-04-01T17:18:01.804Z,2.47
2018-04-01T17:20:28.392Z,1.80
2018-04-01T17:22:54.910Z,1.90
2018-04-01T17:25:21.420Z,4.23
2018-04-01T17:27:47.957Z,3.07
2018-04-01T17:30:14.499Z,2.20
2018-04-01T17:32:41.036Z,3.93
2018-04-01T17:35:07.628Z,3.47
2018-04-01T17:37:34.226Z,2.63
2018-04-01T17:40:00.772Z,1.67
2018-04-01T17:42:27.683Z,3.07
2018-04-01T17:44:54.266Z,2.80
2018-04-01T17:47:20.784Z,2.20
2018-04-01T17:49:47.378Z,4.37
2018-04-01T17:52:13.926Z,2.37
2018-04-01T17:54:40.479Z,3.13
2018-04-01T17:57:07.005Z,4.07
2018-04-01T17:59:33.561Z,2.33
2018-04-01T18:02:00.095Z,4.43
2018-04-01T18:04:26.661Z,5.13
2018-04-01T18:06:53.181Z,7.30
2018-04-01T18:09:19.698Z,3.93
2018-04-01T18:11:46.212Z,5.27
2018-04-01T18:14:12.788Z,4.50
2018-04-01T18:16:39.330Z,3.17
2018-04-01T18:19:05.853Z,3.27
2018-04-01T18:21:32.397Z,5.87
2018-04-01T18:23:58.996Z,3.73
2018-04-01T18:26:25.558Z,8.20
2018-04-01T18:28:52.120Z,3.13
2018-04-01T18:31:18.648Z,11.33
2018-04-01T18:33:45.179Z,3.73
2018-04-01T18:36:11.706Z,4.20
2018-04-01T18:38:38.219Z,4.33
2018-04-01T18:41:04.788Z,6.37
2018-04-01T18:43:31.295Z,6.27
2018-04-01T18:45:57.836Z,5.70
2018-04-01T18:48:24.413Z,3.73
2018-04-01T18:50:50.968Z,2.30
2018-04-01T18:53:17.504Z,2.07
2018-04-01T18:55:44.034Z,2.47
2018-04-01T18:58:11.573Z,3.57
2018-04-01T19:00:38.136Z,2.77
2018-04-01T19:03:04.698Z,2.13
2018-04-01T19:05:31.216Z,4.33
2018-04-01T19:07:57.803Z,1.73
2018-04-01T19:10:24.331Z,3.07
2018-04-01T19:12:50.890Z,2.63
2018-04-01T19:15:17.446Z,3.53
2018-04-01T19:17:44.201Z,3.37
2018-04-01T19:20:11.069Z,4.33
2018-04-01T19:22:37.957Z,2.50
2018-04-01T19:25:04.785Z,2.23
2018-04-01T19:27:31.545Z,3.47
2018-04-01T19:29:58.320Z,3.10
2018-04-01T19:32:25.034Z,3.10
2018-04-01T19:34:51.781Z,2.90
2018-04-01T19:37:18.541Z,3.97
2018-04-01T19:39:45.369Z,4.73
2018-04-01T19:42:12.255Z,3.37
2018-04-01T19:44:38.992Z,2.30
2018-04-01T19:47:05.764Z,3.73
2018-04-01T19:49:32.525Z,2.30
2018-04-01T19:51:59.329Z,2.63
2018-04-01T19:54:26.074Z,2.77
2018-04-01T19:56:52.846Z,2.50
2018-04-01T19:59:19.629Z,3.97
2018-04-01T20:01:46.440Z,2.17
2018-04-01T20:04:13.186Z,2.90
2018-04-01T20:06:39.976Z,2.07
2018-04-01T20:09:06.765Z,2.40
2018-04-01T20:11:33.509Z,1.40
2018-04-01T20:14:00.363Z,2.57
2018-04-01T20:16:27.115Z,3.50
2018-04-01T20:18:53.916Z,3.27
2018-04-01T20:21:20.752Z,2.70
2018-04-01T20:23:47.627Z,2.00
2018-04-01T20:26:14.421Z,2.17
2018-04-01T20:28:41.992Z,1.53
2018-04-01T20:31:08.813Z,2.57
2018-04-01T20:33:35.678Z,1.80
2018-04-01T20:36:02.430Z,1.90
2018-04-01T20:38:29.300Z,2.43
2018-04-01T20:40:56.096Z,1.13
2018-04-01T20:43:23.495Z,1.57
2018-04-01T20:45:50.288Z,2.80
2018-04-01T20:48:17.053Z,1.03
2018-04-01T20:50:43.862Z,1.67
2018-04-01T20:53:10.706Z,2.23
2018-04-01T20:55:37.592Z,4.50
2018-04-01T20:58:05.041Z,2.10
2018-04-01T21:00:31.871Z,2.77
2018-04-01T21:02:58.690Z,2.33
2018-04-01T21:05:25.491Z,1.67
2018-04-01T21:07:52.233Z,1.70
2018-04-01T21:10:19.042Z,2.60
2018-04-01T21:12:45.817Z,1.87
2018-04-01T21:15:12.593Z,1.70
2018-04-01T21:17:39.384Z,1.90
2018-04-01T21:20:06.710Z,1.80
2018-04-01T21:22:33.501Z,1.40
2018-04-01T21:25:00.271Z,2.10
2018-04-01T21:27:27.048Z,2.93
2018-04-01T21:29:53.833Z,1.10
2018-04-01T21:32:20.621Z,3.90
2018-04-01T21:34:47.371Z,1.97
2018-04-01T21:37:14.326Z,2.87
2018-04-01T21:39:41.109Z,5.00
2018-04-01T21:42:07.869Z,3.13
2018-04-01T21:44:34.654Z,2.33
2018-04-01T21:47:01.477Z,2.17
2018-04-01T21:49:28.293Z,4.77
2018-04-01T21:51:55.123Z,2.90
2018-04-01T21:54:21.894Z,2.00
2018-04-01T21:56:48.681Z,1.80
2018-04-01T21:59:15.488Z,4.10
2018-04-01T22:01:42.269Z,4.20
2018-04-01T22:04:09.082Z,3.23
2018-04-01T22:06:35.892Z,2.67
2018-04-01T22:09:02.686Z,1.80
2018-04-01T22:11:29.541Z,3.77
2018-04-01T22:13:56.300Z,2.17
2018-04-01T22:16:23.107Z,3.77
2018-04-01T22:18:49.878Z,3.20
2018-04-01T22:21:16.683Z,3.70
2018-04-01T22:23:43.452Z,5.23
2018-04-01T22:26:10.247Z,5.60
2018-04-01T22:28:37.059Z,2.30
2018-04-01T22:31:03.849Z,5.17
2018-04-01T22:33:30.622Z,3.93
2018-04-01T22:35:57.392Z,5.07
2018-04-01T22:38:24.120Z,3.90
2018-04-01T22:40:50.866Z,4.60
2018-04-01T22:43:17.656Z,3.30
2018-04-01T22:45:44.424Z,5.50
2018-04-01T22:48:11.188Z,5.87
2018-04-01T22:50:37.973Z,2.57
2018-04-01T22:53:04.815Z,3.50
2018-04-01T22:55:31.570Z,5.83
2018-04-01T22:57:58.303Z,4.07
2018-04-01T23:00:25.102Z,4.50
2018-04-01T23:02:51.887Z,3.17
2018-04-01T23:05:18.730Z,4.17
2018-04-01T23:07:45.574Z,3.60
2018-04-01T23:10:12.368Z,4.03
2018-04-01T23:12:39.156Z,2.20
2018-04-01T23:15:05.963Z,2.27
2018-04-01T23:17:32.777Z,3.30
2018-04-01T23:19:59.527Z,5.77
2018-04-01T23:22:26.335Z,4.37
2018-04-01T23:24:53.278Z,5.93
2018-04-01T23:27:20.056Z,6.47
2018-04-01T23:29:46.845Z,4.90
2018-04-01T23:32:13.665Z,6.07
2018-04-01T23:34:40.437Z,4.07
2018-04-01T23:37:07.295Z,7.10
2018-04-01T23:39:34.132Z,3.97
2018-04-01T23:42:00.907Z,3.53
2018-04-01T23:44:27.669Z,4.63
2018-04-01T23:46:54.491Z,3.50
2018-04-01T23:49:21.305Z,7.47
2018-04-01T23:51:48.136Z,4.47
2018-04-01T23:54:14.980Z,6.03
2018-04-01T23:56:41.776Z,7.27
2018-04-01T23:59:08.670Z,7.17
